Time;durP1;ratioP1;P1;durP2;ratioP2;P2;SDS_P1;SDS_P2;PMS_P1;PMS_P2;Temp;Humidity;BMP_temperature;BMP_pressure;BME280_temperature;BME280_humidity;BME280_pressure;Samples;Min_cycle;Max_cycle;Signal;HPM_P1;HPM_P2
2022/09/28 00:00:20;;;;;;;789.50;708.13;;;7.50;99.90;;;;;;4995696;28;21009;-84
2022/09/28 00:02:47;;;;;;;786.63;705.13;;;7.40;99.90;;;;;;5004137;28;20474;-84
2022/09/28 00:05:13;;;;;;;792.70;711.03;;;7.50;99.90;;;;;;5015454;28;20492;-84
2022/09/28 00:07:40;;;;;;;789.67;709.87;;;7.50;99.90;;;;;;5008194;28;20832;-83
2022/09/28 00:10:08;;;;;;;789.10;708.00;;;7.50;99.90;;;;;;4995638;28;20880;-83
2022/09/28 00:12:36;;;;;;;791.03;712.03;;;7.60;99.90;;;;;;5007832;28;20484;-84
2022/09/28 00:15:03;;;;;;;784.20;705.70;;;7.70;99.90;;;;;;5015018;28;20449;-84
2022/09/28 00:17:30;;;;;;;786.27;708.07;;;7.70;99.90;;;;;;5002566;28;20465;-83
2022/09/28 00:20:04;;;;;;;780.47;703.90;;;7.80;99.90;;;;;;4995742;28;20844;-83
2022/09/28 00:22:31;;;;;;;771.23;693.13;;;7.70;99.90;;;;;;5006982;28;20530;-83
2022/09/28 00:24:58;;;;;;;774.00;695.30;;;7.70;99.90;;;;;;5014569;28;20477;-84
2022/09/28 00:27:25;;;;;;;775.67;697.07;;;7.70;99.90;;;;;;5013581;28;20453;-84
2022/09/28 00:29:53;;;;;;;775.30;697.50;;;7.80;99.90;;;;;;5014761;28;20467;-84
2022/09/28 00:32:23;;;;;;;775.03;696.50;;;7.80;99.90;;;;;;5005284;28;20524;-84
2022/09/28 00:34:50;;;;;;;773.10;695.83;;;7.80;99.90;;;;;;4994480;28;20454;-83
2022/09/28 00:37:19;;;;;;;784.67;707.47;;;7.80;99.90;;;;;;5003364;28;20453;-83
2022/09/28 00:39:46;;;;;;;778.67;701.80;;;7.70;99.90;;;;;;5014804;28;20480;-83
2022/09/28 00:42:15;;;;;;;780.13;703.17;;;7.80;99.90;;;;;;5002134;28;20837;-84
2022/09/28 00:44:46;;;;;;;783.17;707.97;;;7.80;99.90;;;;;;4994960;28;20490;-84
2022/09/28 00:47:37;;;;;;;795.43;720.10;;;7.80;99.90;;;;;;5008263;28;20450;-83
2022/09/28 00:50:08;;;;;;;784.60;709.83;;;7.80;99.90;;;;;;5015286;28;20453;-84
2022/09/28 00:52:39;;;;;;;784.63;710.47;;;7.80;99.90;;;;;;5000101;28;20884;-83
2022/09/28 00:55:09;;;;;;;786.73;712.47;;;7.80;99.90;;;;;;4995049;28;20472;-83
2022/09/28 00:57:37;;;;;;;804.77;730.27;;;7.70;99.90;;;;;;5010002;28;20453;-84
2022/09/28 01:00:05;;;;;;;793.60;719.10;;;7.70;99.90;;;;;;5014686;28;20973;-83
2022/09/28 01:02:33;;;;;;;786.30;711.10;;;7.70;99.90;;;;;;5003039;28;20474;-84
2022/09/28 01:05:01;;;;;;;794.57;719.40;;;7.60;99.90;;;;;;4995665;28;20489;-84
2022/09/28 01:07:28;;;;;;;797.10;721.40;;;7.70;99.90;;;;;;4998315;28;20887;-83
2022/09/28 01:09:55;;;;;;;794.40;718.70;;;7.60;99.90;;;;;;4994368;28;20536;-83
2022/09/28 01:12:22;;;;;;;798.53;722.43;;;7.60;99.90;;;;;;5005473;28;20564;-84
2022/09/28 01:14:50;;;;;;;809.03;732.70;;;7.60;99.90;;;;;;5014202;28;20950;-84
2022/09/28 01:17:24;;;;;;;784.43;707.93;;;7.60;99.90;;;;;;5004725;28;20465;-83
2022/09/28 01:20:17;;;;;;;798.50;722.30;;;7.50;99.90;;;;;;4994459;28;20465;-84
2022/09/28 01:23:11;;;;;;;800.73;724.30;;;7.60;99.90;;;;;;5011851;28;20477;-84
2022/09/28 01:25:42;;;;;;;806.00;728.80;;;7.70;99.90;;;;;;5014448;28;20473;-84
2022/09/28 01:28:14;;;;;;;800.13;722.60;;;7.60;99.90;;;;;;5014550;28;20453;-84
2022/09/28 01:30:44;;;;;;;807.93;731.03;;;7.50;99.90;;;;;;5014135;28;20511;-85
2022/09/28 01:33:22;;;;;;;786.33;709.00;;;7.60;99.90;;;;;;5052415;23;20492;-80
2022/09/28 01:35:54;;;;;;;790.27;712.93;;;7.60;99.90;;;;;;5038132;28;21052;-80
2022/09/28 01:38:24;;;;;;;805.73;727.73;;;7.60;99.90;;;;;;5039329;28;20460;-81
2022/09/28 01:40:52;;;;;;;784.07;706.77;;;7.60;99.90;;;;;;5038280;28;20463;-81
2022/09/28 01:43:24;;;;;;;784.77;707.17;;;7.50;99.90;;;;;;5038125;28;20862;-80
2022/09/28 01:45:54;;;;;;;777.37;699.60;;;7.50;99.90;;;;;;5029915;28;20480;-81
2022/09/28 01:48:26;;;;;;;780.60;702.13;;;7.50;99.90;;;;;;5018518;28;20444;-81
2022/09/28 01:50:58;;;;;;;789.30;711.33;;;7.50;99.90;;;;;;5025728;28;20459;-80
2022/09/28 01:53:30;;;;;;;802.27;724.77;;;7.50;99.90;;;;;;5038111;28;20590;-80
2022/09/28 01:56:01;;;;;;;778.90;702.00;;;7.50;99.90;;;;;;5036944;28;20455;-81
2022/09/28 01:58:36;;;;;;;771.00;693.30;;;7.50;99.90;;;;;;5038402;28;20453;-81
2022/09/28 02:01:08;;;;;;;775.23;697.83;;;7.50;99.90;;;;;;5030295;28;20823;-81
2022/09/28 02:03:39;;;;;;;770.60;693.57;;;7.60;99.90;;;;;;5018000;28;20469;-81
2022/09/28 02:06:14;;;;;;;776.33;698.77;;;7.50;99.90;;;;;;5025110;28;20483;-80
2022/09/28 02:08:45;;;;;;;798.50;721.40;;;7.50;99.90;;;;;;5038833;28;20463;-81
2022/09/28 02:11:14;;;;;;;798.00;719.70;;;7.40;99.90;;;;;;5037491;28;20459;-81
2022/09/28 02:13:46;;;;;;;761.93;682.93;;;7.60;99.90;;;;;;5037041;28;20476;-79
2022/09/28 02:16:19;;;;;;;771.33;693.20;;;7.50;99.90;;;;;;5022702;28;20950;-79
2022/09/28 02:18:46;;;;;;;810.00;730.50;;;7.60;99.90;;;;;;5018257;28;20457;-81
2022/09/28 02:21:17;;;;;;;805.13;726.23;;;7.60;99.90;;;;;;5031788;28;20449;-79
2022/09/28 02:23:51;;;;;;;788.50;710.07;;;7.70;99.90;;;;;;5037280;28;20483;-80
2022/09/28 02:26:22;;;;;;;798.43;719.47;;;7.80;99.90;;;;;;5022962;28;20472;-80
2022/09/28 02:28:50;;;;;;;802.83;725.70;;;7.70;99.90;;;;;;5018316;28;20442;-81
2022/09/28 02:31:17;;;;;;;794.03;716.17;;;7.80;99.90;;;;;;5031101;28;20459;-81
2022/09/28 02:33:45;;;;;;;788.83;712.53;;;7.90;99.90;;;;;;5036208;28;20491;-80
2022/09/28 02:36:14;;;;;;;795.87;720.00;;;7.90;99.90;;;;;;5027255;28;20521;-81
2022/09/28 02:38:41;;;;;;;795.23;720.43;;;8.00;99.90;;;;;;5019731;28;20476;-81
2022/09/28 02:41:20;;;;;;;786.23;712.50;;;8.00;99.90;;;;;;5032544;28;20475;-80
2022/09/28 02:44:01;;;;;;;796.50;722.37;;;8.00;99.90;;;;;;5040950;28;21026;-79
2022/09/28 02:46:32;;;;;;;791.87;717.77;;;8.10;99.90;;;;;;5020204;28;20480;-81
2022/09/28 02:49:15;;;;;;;781.40;708.60;;;8.10;99.90;;;;;;5019839;28;20526;-80
2022/09/28 02:51:52;;;;;;;789.60;716.90;;;8.20;99.90;;;;;;5040138;28;20448;-81
2022/09/28 02:54:36;;;;;;;798.40;726.10;;;8.20;99.90;;;;;;5036599;28;20497;-81
2022/09/28 02:57:12;;;;;;;798.23;726.73;;;8.20;99.90;;;;;;5029597;28;20448;-82
2022/09/28 02:59:56;;;;;;;793.73;722.40;;;8.20;99.90;;;;;;5037381;28;20452;-80
2022/09/28 03:02:32;;;;;;;792.40;721.53;;;8.30;99.90;;;;;;5022495;28;20838;-81
2022/09/28 03:05:23;;;;;;;788.77;718.10;;;8.20;99.90;;;;;;5026917;28;20480;-81
2022/09/28 03:08:01;;;;;;;786.77;719.20;;;8.30;99.90;;;;;;5039302;28;20893;-83
2022/09/28 03:10:40;;;;;;;785.60;719.17;;;8.30;99.90;;;;;;5031491;28;20453;-82
2022/09/28 03:13:17;;;;;;;775.20;709.17;;;8.30;99.90;;;;;;5021872;28;20563;-82
2022/09/28 03:15:55;;;;;;;792.13;725.97;;;8.30;99.90;;;;;;5025918;28;20440;-82
2022/09/28 03:18:27;;;;;;;788.17;722.77;;;8.40;99.90;;;;;;5020513;28;20539;-82
2022/09/28 03:20:55;;;;;;;791.20;726.17;;;8.40;99.90;;;;;;5021824;28;20976;-83
2022/09/28 03:23:24;;;;;;;789.13;725.77;;;8.40;99.90;;;;;;5020776;28;20539;-81
2022/09/28 03:25:51;;;;;;;791.93;728.40;;;8.40;99.90;;;;;;5023878;28;20471;-80
2022/09/28 03:28:20;;;;;;;783.57;721.83;;;8.60;99.90;;;;;;5026813;28;20627;-80
2022/09/28 03:30:48;;;;;;;790.47;727.77;;;8.50;99.90;;;;;;5024639;28;20544;-78
2022/09/28 03:33:14;;;;;;;792.83;730.20;;;8.50;99.90;;;;;;5029829;28;20481;-81
2022/09/28 03:35:41;;;;;;;792.53;730.43;;;8.50;99.90;;;;;;5040906;28;20452;-81
2022/09/28 03:38:08;;;;;;;786.03;724.37;;;8.50;99.90;;;;;;5036674;28;20456;-81
2022/09/28 03:40:35;;;;;;;784.40;722.70;;;8.50;99.90;;;;;;5040124;28;20953;-81
2022/09/28 03:43:01;;;;;;;771.53;710.77;;;8.50;99.90;;;;;;5033167;28;20469;-81
2022/09/28 03:45:28;;;;;;;769.13;708.10;;;8.60;99.90;;;;;;5019732;28;20477;-82
2022/09/28 03:47:56;;;;;;;770.97;708.63;;;8.50;99.90;;;;;;5019929;28;20460;-84
2022/09/28 03:50:23;;;;;;;772.63;708.90;;;8.60;99.90;;;;;;5023334;28;20457;-82
2022/09/28 03:52:49;;;;;;;767.00;702.50;;;8.50;99.90;;;;;;5031815;28;20472;-81
2022/09/28 03:55:16;;;;;;;762.37;699.27;;;8.50;99.90;;;;;;5035905;28;20956;-81
2022/09/28 03:57:43;;;;;;;755.63;690.87;;;8.60;99.90;;;;;;5033241;28;20448;-81
2022/09/28 04:00:11;;;;;;;759.40;694.10;;;8.60;99.90;;;;;;5021213;28;20464;-81
2022/09/28 04:02:38;;;;;;;760.00;695.50;;;8.50;99.90;;;;;;5020558;28;20619;-81
2022/09/28 04:05:08;;;;;;;768.70;702.60;;;8.60;99.90;;;;;;5019968;28;20453;-81
2022/09/28 04:07:35;;;;;;;761.90;696.70;;;8.50;99.90;;;;;;5020549;28;20507;-81
2022/09/28 04:10:01;;;;;;;766.20;700.30;;;8.50;99.90;;;;;;5018231;28;20466;-81
2022/09/28 04:12:28;;;;;;;778.40;712.63;;;8.50;99.90;;;;;;5020060;28;20608;-81
2022/09/28 04:14:56;;;;;;;781.60;716.40;;;8.50;99.90;;;;;;5019601;28;20453;-81
2022/09/28 04:17:22;;;;;;;774.90;709.37;;;8.50;99.90;;;;;;5025906;28;20473;-81
2022/09/28 04:19:49;;;;;;;786.00;719.73;;;8.50;99.90;;;;;;5020965;28;20460;-81
2022/09/28 04:22:17;;;;;;;769.93;707.80;;;8.50;99.90;;;;;;5020771;28;20469;-81
2022/09/28 04:24:45;;;;;;;781.47;718.00;;;8.40;99.90;;;;;;5020384;28;20453;-81
2022/09/28 04:29:56;;;;;;;787.70;724.40;;;8.40;99.90;;;;;;5020796;28;20437;-81
2022/09/28 04:32:23;;;;;;;791.77;729.30;;;8.40;99.90;;;;;;5020837;28;20488;-81
2022/09/28 04:34:50;;;;;;;794.67;732.40;;;8.30;99.90;;;;;;5021391;28;20450;-84
2022/09/28 04:37:18;;;;;;;789.23;727.40;;;8.30;99.90;;;;;;5031065;28;20485;-83
2022/09/28 04:39:45;;;;;;;777.70;715.30;;;8.20;99.90;;;;;;5039763;28;20453;-81
2022/09/28 04:42:12;;;;;;;773.73;713.67;;;8.20;99.90;;;;;;5024909;28;20469;-81
2022/09/28 04:44:38;;;;;;;772.63;711.53;;;8.30;99.90;;;;;;5040527;28;20808;-81
2022/09/28 04:47:05;;;;;;;779.20;717.63;;;8.20;99.90;;;;;;5037086;28;20485;-81
2022/09/28 04:49:46;;;;;;;772.93;712.87;;;8.20;99.90;;;;;;5020302;28;20460;-80
2022/09/28 04:52:17;;;;;;;778.63;719.17;;;8.20;99.90;;;;;;5033658;28;20509;-81
2022/09/28 04:54:56;;;;;;;779.93;721.70;;;8.20;99.90;;;;;;5026838;28;20487;-81
2022/09/28 04:58:06;;;;;;;782.20;723.80;;;8.20;99.90;;;;;;5038278;28;20531;-81
2022/09/28 05:00:34;;;;;;;772.83;716.97;;;8.20;99.90;;;;;;5019541;28;20457;-81
2022/09/28 05:03:53;;;;;;;769.60;714.40;;;8.20;99.90;;;;;;5019730;28;21238;-80
2022/09/28 05:06:29;;;;;;;785.27;728.87;;;8.20;99.90;;;;;;4966242;28;20863;-81
2022/09/28 05:09:43;;;;;;;769.27;715.07;;;8.00;99.90;;;;;;5019731;28;20463;-81
2022/09/28 05:12:37;;;;;;;769.03;714.70;;;8.00;99.90;;;;;;4960130;28;20476;-81
2022/09/28 05:15:07;;;;;;;778.57;723.93;;;8.00;99.90;;;;;;4960036;28;20879;-81
2022/09/28 05:20:51;;;;;;;772.53;717.27;;;7.80;99.90;;;;;;4954359;28;20456;-81
2022/09/28 05:23:18;;;;;;;777.40;720.57;;;7.80;99.90;;;;;;5008241;28;20471;-82
2022/09/28 05:28:45;;;;;;;777.23;720.57;;;7.80;99.90;;;;;;5010564;28;21000;-82
2022/09/28 05:31:12;;;;;;;767.33;709.90;;;7.80;99.90;;;;;;5034619;28;20448;-82
2022/09/28 05:33:38;;;;;;;771.33;713.53;;;7.90;99.90;;;;;;5032049;28;20823;-82
2022/09/28 05:36:09;;;;;;;773.73;717.57;;;8.00;99.90;;;;;;5026797;28;20452;-81
2022/09/28 05:38:36;;;;;;;767.60;711.17;;;8.00;99.90;;;;;;5040716;28;20874;-83
2022/09/28 05:41:03;;;;;;;766.87;712.43;;;8.10;99.90;;;;;;5021315;28;20452;-82
2022/09/28 05:43:30;;;;;;;770.07;716.23;;;8.10;99.90;;;;;;5020173;28;20469;-82
2022/09/28 05:45:58;;;;;;;758.00;709.80;;;8.20;99.90;;;;;;5037321;28;20479;-82
2022/09/28 05:48:28;;;;;;;742.47;697.50;;;8.20;99.90;;;;;;5040054;28;20459;-83
2022/09/28 05:50:57;;;;;;;732.00;687.90;;;8.20;99.90;;;;;;5023501;28;20449;-83
2022/09/28 05:53:56;;;;;;;750.63;705.90;;;8.20;99.90;;;;;;5019596;28;20503;-82
2022/09/28 05:56:23;;;;;;;741.13;697.40;;;8.20;99.90;;;;;;5023225;28;20961;-83
2022/09/28 05:58:50;;;;;;;723.50;683.53;;;8.20;99.90;;;;;;5033154;28;20447;-83
2022/09/28 06:01:18;;;;;;;714.53;676.23;;;8.20;99.90;;;;;;5021914;28;20452;-84
2022/09/28 06:03:44;;;;;;;701.90;664.27;;;8.20;99.90;;;;;;5024940;28;20475;-84
2022/09/28 06:06:11;;;;;;;694.77;660.47;;;8.20;99.90;;;;;;5027974;28;20479;-83
2022/09/28 06:08:41;;;;;;;687.90;653.80;;;8.30;99.90;;;;;;5032871;28;20663;-83
2022/09/28 06:11:11;;;;;;;695.53;660.33;;;8.30;99.90;;;;;;5026661;28;20536;-83
2022/09/28 06:13:38;;;;;;;678.47;644.87;;;8.30;99.90;;;;;;5033462;28;20483;-83
2022/09/28 06:16:06;;;;;;;683.53;649.83;;;8.30;99.90;;;;;;5023572;28;20445;-83
2022/09/28 06:18:34;;;;;;;684.10;650.30;;;8.40;99.90;;;;;;5022740;28;20453;-84
2022/09/28 06:21:01;;;;;;;685.87;652.37;;;8.40;99.90;;;;;;5028690;28;20456;-85
2022/09/28 06:23:28;;;;;;;690.10;656.47;;;8.40;99.90;;;;;;5034244;28;20538;-81
2022/09/28 06:25:54;;;;;;;652.13;622.53;;;8.50;99.90;;;;;;5033021;28;20488;-82
2022/09/28 06:28:21;;;;;;;637.97;609.37;;;8.40;99.90;;;;;;5024843;28;20456;-83
2022/09/28 06:30:48;;;;;;;612.30;585.63;;;8.50;99.90;;;;;;5036976;28;20454;-82
2022/09/28 06:33:16;;;;;;;618.33;591.20;;;8.50;99.90;;;;;;5023841;28;20476;-82
2022/09/28 06:35:44;;;;;;;606.87;579.97;;;8.50;99.90;;;;;;5027898;28;20448;-84
2022/09/28 06:38:11;;;;;;;601.53;574.93;;;8.60;99.90;;;;;;5028450;28;20453;-82
2022/09/28 06:40:39;;;;;;;592.77;566.47;;;8.60;99.90;;;;;;5027014;28;20964;-81
2022/09/28 06:43:09;;;;;;;574.77;549.40;;;8.70;99.90;;;;;;5031822;28;20465;-82
2022/09/28 06:45:37;;;;;;;584.63;559.03;;;8.70;99.90;;;;;;5021935;28;20457;-82
2022/09/28 06:48:04;;;;;;;503.20;482.67;;;8.70;99.90;;;;;;5033253;28;20472;-82
2022/09/28 06:50:33;;;;;;;483.97;464.93;;;8.70;99.90;;;;;;5020939;28;20445;-81
2022/09/28 06:53:01;;;;;;;500.17;480.83;;;8.70;99.90;;;;;;5020066;28;20465;-81
2022/09/28 06:55:28;;;;;;;469.90;452.37;;;8.80;99.90;;;;;;5038475;28;20463;-81
2022/09/28 06:57:59;;;;;;;397.00;382.80;;;8.70;99.90;;;;;;5024355;28;20453;-81
2022/09/28 07:00:26;;;;;;;442.20;425.57;;;8.80;99.90;;;;;;5019240;28;20457;-81
2022/09/28 07:02:53;;;;;;;457.30;440.50;;;8.80;99.90;;;;;;5030871;28;20468;-81
2022/09/28 07:05:23;;;;;;;384.23;370.47;;;8.80;99.90;;;;;;5027385;28;20857;-82
2022/09/28 07:07:49;;;;;;;395.00;381.00;;;8.90;99.90;;;;;;5018121;28;20476;-81
2022/09/28 07:10:18;;;;;;;326.77;316.00;;;8.90;99.90;;;;;;5027361;28;20458;-81
2022/09/28 07:12:46;;;;;;;334.07;323.03;;;9.00;99.90;;;;;;5017555;28;20479;-81
2022/09/28 07:15:12;;;;;;;199.40;192.70;;;9.10;99.90;;;;;;5017083;28;20481;-81
2022/09/28 07:17:39;;;;;;;264.60;256.13;;;9.00;99.90;;;;;;5028585;28;20448;-83
2022/09/28 07:20:06;;;;;;;238.97;231.13;;;9.20;99.90;;;;;;5017496;28;20457;-83
2022/09/28 07:22:33;;;;;;;189.37;181.67;;;9.40;99.90;;;;;;5028525;28;20475;-81
2022/09/28 07:25:00;;;;;;;197.60;190.97;;;9.40;99.90;;;;;;5024764;28;20455;-82
2022/09/28 07:27:28;;;;;;;236.77;229.10;;;9.50;99.90;;;;;;5018480;28;20512;-80
2022/09/28 07:29:55;;;;;;;75.87;72.60;;;9.60;99.90;;;;;;5027708;28;20449;-82
2022/09/28 07:32:23;;;;;;;98.17;94.53;;;9.60;99.90;;;;;;5035401;28;20496;-81
2022/09/28 07:34:49;;;;;;;95.70;91.73;;;9.80;99.90;;;;;;5039648;28;20456;-80
2022/09/28 07:37:17;;;;;;;68.97;66.07;;;9.80;99.90;;;;;;5039486;28;20460;-80
2022/09/28 07:42:30;;;;;;;26.97;25.27;;;9.90;99.90;;;;;;5040068;28;20475;-80
2022/09/28 07:44:57;;;;;;;24.43;23.03;;;10.10;99.90;;;;;;5040196;28;20449;-80
2022/09/28 07:47:25;;;;;;;16.50;15.30;;;10.20;99.90;;;;;;5039402;28;20476;-81
2022/09/28 07:49:53;;;;;;;14.47;13.20;;;10.20;99.90;;;;;;5039931;28;20541;-81
2022/09/28 07:52:21;;;;;;;17.73;16.33;;;10.30;99.90;;;;;;5040215;28;20475;-81
2022/09/28 07:54:50;;;;;;;13.80;12.73;;;10.50;99.90;;;;;;5039724;28;20452;-80
2022/09/28 07:57:17;;;;;;;11.57;8.47;;;10.60;99.90;;;;;;5039722;28;20455;-81
2022/09/28 07:59:45;;;;;;;13.37;7.87;;;10.70;99.90;;;;;;5039642;28;20457;-81
2022/09/28 08:02:13;;;;;;;10.40;5.93;;;10.90;99.90;;;;;;5039271;28;20850;-81
2022/09/28 08:04:39;;;;;;;9.73;8.50;;;10.90;99.90;;;;;;5038988;28;20456;-81
2022/09/28 08:07:09;;;;;;;7.83;4.97;;;10.90;99.90;;;;;;5039665;28;20480;-81
2022/09/28 08:09:36;;;;;;;9.83;4.13;;;11.10;99.90;;;;;;5039828;28;20471;-81
2022/09/28 08:12:03;;;;;;;11.27;5.23;;;11.20;99.90;;;;;;5039525;28;20468;-82
2022/09/28 08:14:32;;;;;;;8.10;6.27;;;11.30;99.90;;;;;;5039148;28;20479;-81
2022/09/28 08:17:00;;;;;;;13.90;4.40;;;11.50;99.90;;;;;;5039747;28;20479;-83
2022/09/28 08:21:43;;;;;;;7.93;3.77;;;11.40;99.60;;;;;;5039706;28;20479;-81
2022/09/28 08:22:16;;;;;;;6.97;3.60;;;11.30;98.60;;;;;;5039189;28;20500;-82
2022/09/28 08:24:43;;;;;;;6.90;3.40;;;11.40;98.50;;;;;;5039035;28;20456;-81
2022/09/28 08:27:10;;;;;;;7.77;3.90;;;11.60;98.30;;;;;;5039099;28;20480;-80
2022/09/28 08:29:37;;;;;;;8.20;4.00;;;11.70;98.30;;;;;;5038897;28;20980;-81
2022/09/28 08:32:07;;;;;;;6.63;3.00;;;11.70;97.60;;;;;;5037881;28;20844;-83
2022/09/28 08:34:34;;;;;;;6.70;3.13;;;11.70;97.00;;;;;;5038766;28;20456;-81
2022/09/28 08:37:01;;;;;;;4.60;2.70;;;11.80;97.20;;;;;;5039320;28;20448;-81
2022/09/28 08:39:27;;;;;;;6.40;2.87;;;11.90;95.70;;;;;;5039149;28;20452;-81
2022/09/28 08:42:06;;;;;;;8.40;3.53;;;12.00;95.40;;;;;;5038905;28;20476;-83
2022/09/28 08:44:40;;;;;;;8.80;2.90;;;12.10;95.50;;;;;;5038667;28;20978;-82
2022/09/28 08:48:42;;;;;;;8.80;2.87;;;12.10;94.80;;;;;;5039174;28;20485;-81
2022/09/28 08:50:03;;;;;;;11.00;2.53;;;12.10;94.40;;;;;;5038488;28;20479;-81
2022/09/28 08:52:34;;;;;;;7.00;2.87;;;12.00;94.20;;;;;;5038962;28;20526;-81
2022/09/28 08:55:07;;;;;;;9.60;3.10;;;12.00;93.80;;;;;;5038369;28;20975;-81
2022/09/28 08:57:40;;;;;;;7.93;4.13;;;12.20;94.00;;;;;;5038281;28;20465;-81
2022/09/28 09:00:17;;;;;;;8.07;2.77;;;12.40;94.60;;;;;;5038378;28;20452;-81
2022/09/28 09:02:45;;;;;;;5.10;2.47;;;12.70;93.90;;;;;;5037798;28;20564;-81
2022/09/28 09:05:17;;;;;;;7.63;2.67;;;12.80;92.10;;;;;;5037930;28;20459;-80
2022/09/28 09:07:58;;;;;;;7.63;2.50;;;12.70;92.10;;;;;;5038200;28;20508;-81
2022/09/28 09:10:41;;;;;;;9.60;2.87;;;12.60;91.80;;;;;;5037954;28;20836;-81
2022/09/28 09:13:46;;;;;;;5.20;2.57;;;12.50;92.00;;;;;;5038059;28;20476;-81
2022/09/28 09:16:28;;;;;;;6.97;1.87;;;12.80;92.20;;;;;;5038294;28;20475;-82
2022/09/28 09:19:06;;;;;;;6.37;2.43;;;12.90;91.20;;;;;;5038130;28;20448;-83
2022/09/28 09:21:40;;;;;;;6.20;2.30;;;13.20;90.90;;;;;;5037486;28;20448;-81
2022/09/28 09:24:23;;;;;;;6.73;2.80;;;13.50;89.50;;;;;;5038221;28;20465;-82
2022/09/28 09:27:00;;;;;;;5.00;2.00;;;13.40;89.40;;;;;;5037840;28;20461;-81
2022/09/28 09:29:35;;;;;;;4.77;2.00;;;13.20;87.60;;;;;;5038626;28;20468;-83
2022/09/28 09:32:24;;;;;;;6.50;2.20;;;13.10;90.10;;;;;;5030475;28;20860;-81
2022/09/28 09:35:05;;;;;;;5.30;2.30;;;13.00;86.90;;;;;;5037896;28;20849;-82
2022/09/28 09:37:48;;;;;;;5.00;2.23;;;13.50;87.40;;;;;;5020347;28;20445;-81
2022/09/28 09:40:26;;;;;;;5.07;2.10;;;13.80;86.60;;;;;;5021051;28;20462;-83
2022/09/28 09:43:06;;;;;;;5.10;2.10;;;14.20;85.80;;;;;;5041239;28;20470;-83
2022/09/28 09:45:47;;;;;;;4.60;2.00;;;14.50;82.30;;;;;;5039366;28;20459;-83
2022/09/28 09:48:20;;;;;;;6.87;2.40;;;14.60;81.10;;;;;;5029906;28;20501;-81
2022/09/28 09:50:53;;;;;;;6.03;1.80;;;15.00;81.50;;;;;;5017518;28;20815;-81
2022/09/28 09:53:30;;;;;;;7.40;1.90;;;14.70;80.70;;;;;;5018583;28;20479;-81
2022/09/28 09:56:02;;;;;;;5.27;1.90;;;14.80;81.30;;;;;;5027523;28;20971;-81
2022/09/28 09:58:34;;;;;;;5.00;1.70;;;14.80;79.40;;;;;;5018009;28;20474;-81
2022/09/28 10:01:07;;;;;;;6.37;1.67;;;14.40;78.20;;;;;;5020129;28;20943;-82
2022/09/28 10:03:39;;;;;;;6.80;1.70;;;14.40;79.10;;;;;;5028314;28;20472;-80
2022/09/28 10:06:11;;;;;;;7.73;2.03;;;14.60;81.10;;;;;;5017383;28;20453;-81
2022/09/28 10:08:44;;;;;;;4.27;1.40;;;14.60;79.50;;;;;;5018365;28;20491;-81
2022/09/28 10:11:15;;;;;;;6.90;1.60;;;14.80;76.20;;;;;;5030699;28;20479;-81
2022/09/28 10:13:43;;;;;;;3.80;1.50;;;14.60;78.40;;;;;;5037263;28;20476;-81
2022/09/28 10:16:10;;;;;;;4.70;1.50;;;15.00;76.80;;;;;;5024366;28;20456;-81
2022/09/28 10:18:37;;;;;;;4.93;1.40;;;15.20;77.20;;;;;;5018501;28;20462;-80
2022/09/28 10:21:05;;;;;;;4.10;1.67;;;14.80;73.40;;;;;;5017624;28;20452;-81
2022/09/28 10:23:36;;;;;;;6.87;1.97;;;15.30;73.90;;;;;;5028456;28;20468;-83
2022/09/28 10:26:05;;;;;;;5.23;1.93;;;15.70;72.00;;;;;;5038389;28;20456;-81
2022/09/28 10:28:39;;;;;;;4.13;1.50;;;15.50;70.00;;;;;;5036831;28;20478;-81
2022/09/28 10:31:40;;;;;;;5.80;1.70;;;15.80;70.90;;;;;;5038308;28;20833;-84
2022/09/28 10:34:10;;;;;;;6.30;1.57;;;16.40;66.80;;;;;;5023464;28;20888;-81
2022/09/28 10:36:51;;;;;;;5.47;1.80;;;16.20;66.60;;;;;;5019024;28;20530;-81
2022/09/28 10:39:30;;;;;;;6.00;1.60;;;16.10;70.60;;;;;;5019003;28;20444;-82
2022/09/28 10:42:02;;;;;;;5.53;1.90;;;16.80;67.20;;;;;;5018611;28;20475;-82
2022/09/28 10:44:31;;;;;;;5.00;1.80;;;16.40;66.80;;;;;;5034978;28;20451;-83
2022/09/28 10:47:00;;;;;;;4.10;1.43;;;16.90;67.30;;;;;;5039290;28;20462;-81
2022/09/28 10:49:27;;;;;;;5.97;1.70;;;17.70;63.30;;;;;;5023680;28;20452;-83
2022/09/28 10:51:56;;;;;;;4.87;1.57;;;17.50;61.90;;;;;;5019415;28;20511;-82
2022/09/28 10:54:26;;;;;;;4.80;1.47;;;17.10;63.50;;;;;;5018737;28;20476;-82
2022/09/28 10:56:54;;;;;;;5.50;1.40;;;15.80;64.10;;;;;;5022350;28;20452;-81
2022/09/28 10:59:37;;;;;;;6.90;1.80;;;15.30;67.10;;;;;;5037698;28;20517;-81
2022/09/28 11:02:16;;;;;;;5.10;1.97;;;15.10;68.60;;;;;;5041809;28;20479;-82
2022/09/28 11:04:51;;;;;;;4.83;2.33;;;14.90;70.60;;;;;;5023615;28;20459;-81
2022/09/28 11:07:19;;;;;;;4.20;1.50;;;15.00;73.10;;;;;;5022670;28;20457;-83
2022/09/28 11:09:49;;;;;;;4.73;1.70;;;14.90;72.60;;;;;;5040743;28;20535;-81
2022/09/28 11:12:19;;;;;;;6.97;1.90;;;14.80;71.90;;;;;;5042227;28;20506;-81
2022/09/28 11:14:51;;;;;;;6.70;2.10;;;14.80;72.90;;;;;;5023920;28;20450;-82
2022/09/28 11:17:26;;;;;;;5.50;2.50;;;14.70;73.20;;;;;;5021943;28;20723;-81
2022/09/28 11:19:53;;;;;;;4.80;1.60;;;14.50;71.60;;;;;;5034051;28;20461;-81
2022/09/28 11:22:23;;;;;;;4.90;1.60;;;14.60;73.20;;;;;;5022576;28;20474;-81
2022/09/28 11:24:52;;;;;;;8.83;1.80;;;14.80;73.40;;;;;;5027039;28;20497;-81
2022/09/28 11:27:21;;;;;;;5.20;1.70;;;14.80;69.60;;;;;;5020663;28;20959;-77
2022/09/28 11:29:55;;;;;;;5.88;1.65;;;15.20;69.00;;;;;;5023302;28;20455;-82
2022/09/28 11:32:23;;;;;;;8.50;1.80;;;15.40;68.70;;;;;;5041149;28;20232;-80
2022/09/28 11:34:51;;;;;;;7.70;1.77;;;15.30;69.50;;;;;;5034715;28;20467;-82
2022/09/28 11:37:40;;;;;;;5.20;1.73;;;15.00;71.00;;;;;;5027476;28;20526;-82
2022/09/28 11:40:49;;;;;;;5.50;1.70;;;14.60;72.60;;;;;;5037147;28;20452;-82
2022/09/28 11:43:34;;;;;;;5.13;1.70;;;14.40;73.10;;;;;;5031707;28;20563;-86
2022/09/28 11:46:07;;;;;;;4.97;1.70;;;14.40;73.10;;;;;;5031676;28;20446;-83
2022/09/28 11:48:42;;;;;;;5.10;1.67;;;14.50;71.70;;;;;;5027601;28;20834;-84
2022/09/28 11:51:16;;;;;;;5.57;2.30;;;14.70;71.80;;;;;;5026721;28;20453;-83
2022/09/28 11:53:49;;;;;;;6.23;2.00;;;15.00;70.20;;;;;;5032203;28;20473;-83
2022/09/28 11:56:25;;;;;;;9.33;1.67;;;15.20;69.00;;;;;;5032814;28;20957;-83
2022/09/28 11:58:56;;;;;;;5.53;1.50;;;15.20;67.90;;;;;;5025281;28;20445;-83
2022/09/28 12:01:30;;;;;;;4.77;1.60;;;15.20;69.20;;;;;;5031504;28;20526;-86
2022/09/28 12:04:02;;;;;;;4.60;1.50;;;15.40;70.00;;;;;;5023971;28;20497;-83
2022/09/28 12:06:34;;;;;;;5.30;1.60;;;15.30;69.90;;;;;;5031491;28;20452;-83
2022/09/28 12:09:10;;;;;;;5.00;1.20;;;15.30;67.40;;;;;;5036704;28;20500;-83
2022/09/28 12:11:42;;;;;;;4.40;1.10;;;15.10;65.60;;;;;;5038508;28;20821;-85
2022/09/28 12:14:18;;;;;;;4.47;1.40;;;15.30;67.10;;;;;;5039363;28;20448;-84
2022/09/28 12:16:49;;;;;;;5.33;1.73;;;15.40;65.90;;;;;;5039318;28;20444;-82
2022/09/28 12:19:21;;;;;;;4.07;1.20;;;15.50;68.30;;;;;;5029725;28;20455;-84
2022/09/28 12:21:51;;;;;;;4.83;1.20;;;15.40;68.10;;;;;;5022340;28;20455;-83
2022/09/28 12:24:23;;;;;;;4.83;1.00;;;15.10;66.30;;;;;;5037783;28;20451;-82
2022/09/28 12:26:56;;;;;;;4.20;1.30;;;14.80;67.80;;;;;;5043219;28;20447;-83
2022/09/28 12:29:29;;;;;;;3.70;0.90;;;14.60;71.30;;;;;;5033104;28;20480;-82
2022/09/28 12:32:05;;;;;;;11.83;1.50;;;14.50;71.10;;;;;;5024195;28;20545;-82
2022/09/28 12:34:32;;;;;;;6.00;1.67;;;14.20;70.80;;;;;;5024435;28;20465;-84
2022/09/28 12:37:12;;;;;;;6.60;1.43;;;14.10;70.70;;;;;;5041583;28;20997;-82
2022/09/28 12:39:56;;;;;;;4.10;1.33;;;14.10;72.80;;;;;;5037528;28;20453;-83
2022/09/28 12:42:40;;;;;;;6.53;1.30;;;13.90;71.00;;;;;;5019912;28;20473;-83
2022/09/28 12:45:21;;;;;;;5.03;1.37;;;13.80;74.00;;;;;;5037886;28;20538;-81
2022/09/28 12:48:21;;;;;;;4.23;1.30;;;13.50;78.50;;;;;;5036317;28;20452;-82
2022/09/28 12:51:00;;;;;;;5.30;1.20;;;13.00;84.00;;;;;;5016825;28;20468;-81
2022/09/28 12:53:56;;;;;;;5.20;1.50;;;12.40;90.30;;;;;;5022653;28;20865;-82
2022/09/28 12:56:33;;;;;;;5.93;1.80;;;12.10;95.20;;;;;;5039389;28;20463;-82
2022/09/28 12:59:11;;;;;;;7.80;1.90;;;12.00;95.70;;;;;;5031967;28;20449;-82
2022/09/28 13:01:58;;;;;;;5.73;2.13;;;12.00;97.00;;;;;;5022468;28;20834;-81
2022/09/28 13:04:43;;;;;;;7.73;4.20;;;12.10;98.20;;;;;;5039610;28;20457;-83